sensor_id;sensor_type;location;lat;lon;timestamp;P1;durP1;ratioP1;P2;durP2;ratioP2
39814;SDS011;25495;45.948;4.568;2022-09-17T00:00:46;2.28;;;1.30;;
39814;SDS011;25495;45.948;4.568;2022-09-17T00:03:15;2.13;;;1.45;;
39814;SDS011;25495;45.948;4.568;2022-09-17T00:05:41;5.32;;;1.85;;
39814;SDS011;25495;45.948;4.568;2022-09-17T00:08:09;5.03;;;1.38;;
39814;SDS011;25495;45.948;4.568;2022-09-17T00:10:39;1.48;;;1.13;;
39814;SDS011;25495;45.948;4.568;2022-09-17T00:13:07;4.38;;;1.40;;
39814;SDS011;25495;45.948;4.568;2022-09-17T00:15:40;2.53;;;1.17;;
39814;SDS011;25495;45.948;4.568;2022-09-17T00:18:07;1.98;;;1.25;;
39814;SDS011;25495;45.948;4.568;2022-09-17T00:20:44;4.20;;;1.13;;
39814;SDS011;25495;45.948;4.568;2022-09-17T00:23:11;5.57;;;1.30;;
39814;SDS011;25495;45.948;4.568;2022-09-17T00:25:39;2.47;;;1.42;;
39814;SDS011;25495;45.948;4.568;2022-09-17T00:28:09;4.32;;;1.20;;
39814;SDS011;25495;45.948;4.568;2022-09-17T00:30:43;1.65;;;1.10;;
39814;SDS011;25495;45.948;4.568;2022-09-17T00:33:11;2.25;;;1.33;;
39814;SDS011;25495;45.948;4.568;2022-09-17T00:35:38;5.38;;;1.45;;
39814;SDS011;25495;45.948;4.568;2022-09-17T00:38:04;2.35;;;1.17;;
39814;SDS011;25495;45.948;4.568;2022-09-17T00:40:31;3.38;;;1.33;;
39814;SDS011;25495;45.948;4.568;2022-09-17T00:42:57;4.20;;;1.92;;
39814;SDS011;25495;45.948;4.568;2022-09-17T00:45:23;4.40;;;1.48;;
39814;SDS011;25495;45.948;4.568;2022-09-17T00:47:52;4.72;;;1.60;;
39814;SDS011;25495;45.948;4.568;2022-09-17T00:50:29;6.95;;;1.20;;
39814;SDS011;25495;45.948;4.568;2022-09-17T00:53:03;3.90;;;1.27;;
39814;SDS011;25495;45.948;4.568;2022-09-17T00:55:53;5.70;;;1.10;;
39814;SDS011;25495;45.948;4.568;2022-09-17T00:58:31;2.85;;;1.13;;
39814;SDS011;25495;45.948;4.568;2022-09-17T01:01:02;5.13;;;1.50;;
39814;SDS011;25495;45.948;4.568;2022-09-17T01:03:30;8.52;;;1.67;;
39814;SDS011;25495;45.948;4.568;2022-09-17T01:06:04;2.45;;;1.20;;
39814;SDS011;25495;45.948;4.568;2022-09-17T01:08:46;1.92;;;1.13;;
39814;SDS011;25495;45.948;4.568;2022-09-17T01:14:41;2.38;;;1.33;;
39814;SDS011;25495;45.948;4.568;2022-09-17T01:35:18;2.72;;;1.35;;
39814;SDS011;25495;45.948;4.568;2022-09-17T01:37:33;1.83;;;1.00;;
39814;SDS011;25495;45.948;4.568;2022-09-17T01:40:13;1.27;;;0.80;;
39814;SDS011;25495;45.948;4.568;2022-09-17T01:43:06;3.33;;;1.25;;
39814;SDS011;25495;45.948;4.568;2022-09-17T01:45:52;1.95;;;0.85;;
39814;SDS011;25495;45.948;4.568;2022-09-17T01:48:25;2.53;;;1.00;;
39814;SDS011;25495;45.948;4.568;2022-09-17T01:50:56;2.50;;;1.02;;
39814;SDS011;25495;45.948;4.568;2022-09-17T01:53:34;1.50;;;0.85;;
39814;SDS011;25495;45.948;4.568;2022-09-17T01:56:09;5.25;;;1.38;;
39814;SDS011;25495;45.948;4.568;2022-09-17T02:01:11;3.63;;;1.13;;
39814;SDS011;25495;45.948;4.568;2022-09-17T02:03:46;1.30;;;0.88;;
39814;SDS011;25495;45.948;4.568;2022-09-17T02:06:22;1.92;;;1.20;;
39814;SDS011;25495;45.948;4.568;2022-09-17T02:08:55;2.55;;;0.90;;
39814;SDS011;25495;45.948;4.568;2022-09-17T02:11:25;2.88;;;1.20;;
39814;SDS011;25495;45.948;4.568;2022-09-17T02:13:53;1.92;;;0.95;;
39814;SDS011;25495;45.948;4.568;2022-09-17T02:16:36;2.10;;;1.20;;
39814;SDS011;25495;45.948;4.568;2022-09-17T02:19:19;1.30;;;1.08;;
39814;SDS011;25495;45.948;4.568;2022-09-17T02:29:51;1.98;;;0.88;;
39814;SDS011;25495;45.948;4.568;2022-09-17T02:32:16;3.60;;;1.25;;
39814;SDS011;25495;45.948;4.568;2022-09-17T02:34:42;4.60;;;1.42;;
39814;SDS011;25495;45.948;4.568;2022-09-17T02:37:08;1.50;;;0.80;;
39814;SDS011;25495;45.948;4.568;2022-09-17T02:39:35;2.95;;;0.90;;
39814;SDS011;25495;45.948;4.568;2022-09-17T02:42:11;1.60;;;1.08;;
39814;SDS011;25495;45.948;4.568;2022-09-17T02:45:08;4.35;;;0.82;;
39814;SDS011;25495;45.948;4.568;2022-09-17T02:53:04;1.77;;;1.02;;
39814;SDS011;25495;45.948;4.568;2022-09-17T02:55:33;5.90;;;1.27;;
39814;SDS011;25495;45.948;4.568;2022-09-17T02:58:20;2.53;;;0.93;;
39814;SDS011;25495;45.948;4.568;2022-09-17T03:01:08;2.50;;;0.95;;
39814;SDS011;25495;45.948;4.568;2022-09-17T03:03:43;2.45;;;1.00;;
39814;SDS011;25495;45.948;4.568;2022-09-17T03:06:14;0.73;;;0.65;;
39814;SDS011;25495;45.948;4.568;2022-09-17T03:08:41;5.15;;;2.42;;
39814;SDS011;25495;45.948;4.568;2022-09-17T03:11:07;1.20;;;0.82;;
39814;SDS011;25495;45.948;4.568;2022-09-17T03:13:36;2.08;;;0.70;;
39814;SDS011;25495;45.948;4.568;2022-09-17T03:16:03;1.35;;;0.88;;
39814;SDS011;25495;45.948;4.568;2022-09-17T03:18:30;1.40;;;0.77;;
39814;SDS011;25495;45.948;4.568;2022-09-17T03:20:56;1.90;;;0.68;;
39814;SDS011;25495;45.948;4.568;2022-09-17T03:23:22;3.25;;;1.23;;
39814;SDS011;25495;45.948;4.568;2022-09-17T03:25:48;2.53;;;0.93;;
39814;SDS011;25495;45.948;4.568;2022-09-17T03:28:15;1.25;;;0.80;;
39814;SDS011;25495;45.948;4.568;2022-09-17T03:30:43;1.33;;;0.70;;
39814;SDS011;25495;45.948;4.568;2022-09-17T03:33:10;1.98;;;0.80;;
39814;SDS011;25495;45.948;4.568;2022-09-17T03:35:36;0.80;;;0.52;;
39814;SDS011;25495;45.948;4.568;2022-09-17T03:38:02;1.05;;;0.80;;
39814;SDS011;25495;45.948;4.568;2022-09-17T03:40:28;1.23;;;0.90;;
39814;SDS011;25495;45.948;4.568;2022-09-17T03:42:54;1.02;;;0.60;;
39814;SDS011;25495;45.948;4.568;2022-09-17T03:45:20;2.85;;;0.70;;
39814;SDS011;25495;45.948;4.568;2022-09-17T03:47:46;1.40;;;0.77;;
39814;SDS011;25495;45.948;4.568;2022-09-17T03:50:12;3.38;;;1.00;;
39814;SDS011;25495;45.948;4.568;2022-09-17T03:52:37;1.98;;;0.65;;
39814;SDS011;25495;45.948;4.568;2022-09-17T03:55:03;1.20;;;0.85;;
39814;SDS011;25495;45.948;4.568;2022-09-17T03:57:29;1.60;;;0.70;;
39814;SDS011;25495;45.948;4.568;2022-09-17T03:59:55;1.08;;;0.55;;
39814;SDS011;25495;45.948;4.568;2022-09-17T04:02:21;0.95;;;0.55;;
39814;SDS011;25495;45.948;4.568;2022-09-17T04:04:47;4.32;;;1.20;;
39814;SDS011;25495;45.948;4.568;2022-09-17T04:07:12;2.63;;;1.20;;
39814;SDS011;25495;45.948;4.568;2022-09-17T04:09:38;1.50;;;0.50;;
39814;SDS011;25495;45.948;4.568;2022-09-17T04:12:04;1.88;;;1.02;;
39814;SDS011;25495;45.948;4.568;2022-09-17T04:14:30;0.50;;;0.50;;
39814;SDS011;25495;45.948;4.568;2022-09-17T04:16:57;2.00;;;0.70;;
39814;SDS011;25495;45.948;4.568;2022-09-17T04:19:23;1.65;;;0.80;;
39814;SDS011;25495;45.948;4.568;2022-09-17T04:21:48;1.13;;;0.65;;
39814;SDS011;25495;45.948;4.568;2022-09-17T04:24:14;2.20;;;0.68;;
39814;SDS011;25495;45.948;4.568;2022-09-17T04:26:40;1.08;;;0.70;;
39814;SDS011;25495;45.948;4.568;2022-09-17T04:29:06;2.30;;;0.90;;
39814;SDS011;25495;45.948;4.568;2022-09-17T04:31:32;0.65;;;0.47;;
39814;SDS011;25495;45.948;4.568;2022-09-17T04:33:58;3.13;;;0.63;;
39814;SDS011;25495;45.948;4.568;2022-09-17T04:36:24;2.30;;;0.70;;
39814;SDS011;25495;45.948;4.568;2022-09-17T04:38:49;1.10;;;0.70;;
39814;SDS011;25495;45.948;4.568;2022-09-17T04:41:15;0.80;;;0.55;;
39814;SDS011;25495;45.948;4.568;2022-09-17T04:43:41;5.78;;;0.70;;
39814;SDS011;25495;45.948;4.568;2022-09-17T04:46:07;2.45;;;0.93;;
39814;SDS011;25495;45.948;4.568;2022-09-17T04:48:33;2.10;;;0.68;;
39814;SDS011;25495;45.948;4.568;2022-09-17T04:50:59;0.82;;;0.70;;
39814;SDS011;25495;45.948;4.568;2022-09-17T04:53:24;1.15;;;0.77;;
39814;SDS011;25495;45.948;4.568;2022-09-17T04:55:50;2.92;;;1.08;;
39814;SDS011;25495;45.948;4.568;2022-09-17T04:58:16;1.38;;;0.70;;
39814;SDS011;25495;45.948;4.568;2022-09-17T05:00:42;4.40;;;0.70;;
39814;SDS011;25495;45.948;4.568;2022-09-17T05:03:08;3.20;;;0.88;;
39814;SDS011;25495;45.948;4.568;2022-09-17T05:05:33;1.67;;;0.70;;
39814;SDS011;25495;45.948;4.568;2022-09-17T05:07:59;1.95;;;0.70;;
39814;SDS011;25495;45.948;4.568;2022-09-17T05:10:25;3.53;;;1.05;;
39814;SDS011;25495;45.948;4.568;2022-09-17T05:12:52;0.88;;;0.70;;
39814;SDS011;25495;45.948;4.568;2022-09-17T05:15:19;1.83;;;0.65;;
39814;SDS011;25495;45.948;4.568;2022-09-17T05:17:45;3.05;;;0.68;;
39814;SDS011;25495;45.948;4.568;2022-09-17T05:20:12;1.23;;;0.60;;
39814;SDS011;25495;45.948;4.568;2022-09-17T05:22:45;1.95;;;0.75;;
39814;SDS011;25495;45.948;4.568;2022-09-17T05:25:14;5.00;;;0.75;;
39814;SDS011;25495;45.948;4.568;2022-09-17T05:27:41;11.73;;;0.90;;
39814;SDS011;25495;45.948;4.568;2022-09-17T05:30:10;1.23;;;0.45;;
39814;SDS011;25495;45.948;4.568;2022-09-17T05:32:37;5.68;;;0.60;;
39814;SDS011;25495;45.948;4.568;2022-09-17T05:35:05;0.75;;;0.40;;
39814;SDS011;25495;45.948;4.568;2022-09-17T05:37:31;2.33;;;0.63;;
39814;SDS011;25495;45.948;4.568;2022-09-17T05:39:57;4.88;;;0.63;;
39814;SDS011;25495;45.948;4.568;2022-09-17T05:42:23;0.73;;;0.40;;
39814;SDS011;25495;45.948;4.568;2022-09-17T05:44:49;0.73;;;0.47;;
39814;SDS011;25495;45.948;4.568;2022-09-17T05:47:15;0.63;;;0.30;;
39814;SDS011;25495;45.948;4.568;2022-09-17T05:49:41;0.98;;;0.45;;
39814;SDS011;25495;45.948;4.568;2022-09-17T05:52:07;0.30;;;0.20;;
39814;SDS011;25495;45.948;4.568;2022-09-17T05:54:33;1.83;;;0.60;;
39814;SDS011;25495;45.948;4.568;2022-09-17T05:56:59;2.30;;;0.60;;
39814;SDS011;25495;45.948;4.568;2022-09-17T05:59:25;3.15;;;0.32;;
39814;SDS011;25495;45.948;4.568;2022-09-17T06:01:52;0.65;;;0.30;;
39814;SDS011;25495;45.948;4.568;2022-09-17T06:04:18;1.75;;;0.30;;
39814;SDS011;25495;45.948;4.568;2022-09-17T06:06:43;0.30;;;0.30;;
39814;SDS011;25495;45.948;4.568;2022-09-17T06:09:09;0.30;;;0.20;;
39814;SDS011;25495;45.948;4.568;2022-09-17T06:11:36;0.32;;;0.20;;
39814;SDS011;25495;45.948;4.568;2022-09-17T06:14:02;3.03;;;0.40;;
39814;SDS011;25495;45.948;4.568;2022-09-17T06:16:28;0.88;;;0.32;;
39814;SDS011;25495;45.948;4.568;2022-09-17T06:18:54;0.38;;;0.20;;
39814;SDS011;25495;45.948;4.568;2022-09-17T06:21:21;1.90;;;0.50;;
39814;SDS011;25495;45.948;4.568;2022-09-17T06:23:47;1.52;;;0.60;;
39814;SDS011;25495;45.948;4.568;2022-09-17T06:26:14;3.97;;;0.38;;
39814;SDS011;25495;45.948;4.568;2022-09-17T06:28:40;2.20;;;0.30;;
39814;SDS011;25495;45.948;4.568;2022-09-17T06:31:07;0.68;;;0.32;;
39814;SDS011;25495;45.948;4.568;2022-09-17T06:33:34;0.85;;;0.50;;
39814;SDS011;25495;45.948;4.568;2022-09-17T06:36:01;0.43;;;0.32;;
39814;SDS011;25495;45.948;4.568;2022-09-17T06:38:32;2.92;;;0.38;;
39814;SDS011;25495;45.948;4.568;2022-09-17T06:40:59;0.98;;;0.22;;
39814;SDS011;25495;45.948;4.568;2022-09-17T06:43:26;1.70;;;0.38;;
39814;SDS011;25495;45.948;4.568;2022-09-17T06:48:19;3.17;;;0.40;;
39814;SDS011;25495;45.948;4.568;2022-09-17T06:50:46;2.83;;;0.40;;
39814;SDS011;25495;45.948;4.568;2022-09-17T06:53:11;3.00;;;0.20;;
39814;SDS011;25495;45.948;4.568;2022-09-17T06:55:37;1.85;;;0.10;;
39814;SDS011;25495;45.948;4.568;2022-09-17T06:58:03;1.90;;;0.30;;
39814;SDS011;25495;45.948;4.568;2022-09-17T07:00:29;3.35;;;0.20;;
39814;SDS011;25495;45.948;4.568;2022-09-17T07:02:55;1.00;;;0.30;;
39814;SDS011;25495;45.948;4.568;2022-09-17T07:05:22;0.73;;;0.30;;
39814;SDS011;25495;45.948;4.568;2022-09-17T07:07:49;3.15;;;0.30;;
39814;SDS011;25495;45.948;4.568;2022-09-17T07:10:15;0.30;;;0.28;;
39814;SDS011;25495;45.948;4.568;2022-09-17T07:12:41;0.32;;;0.20;;
39814;SDS011;25495;45.948;4.568;2022-09-17T07:15:07;2.65;;;0.30;;
39814;SDS011;25495;45.948;4.568;2022-09-17T07:17:38;3.60;;;0.40;;
39814;SDS011;25495;45.948;4.568;2022-09-17T07:20:07;1.75;;;0.30;;
39814;SDS011;25495;45.948;4.568;2022-09-17T07:22:34;1.15;;;0.30;;
39814;SDS011;25495;45.948;4.568;2022-09-17T07:25:00;0.65;;;0.30;;
39814;SDS011;25495;45.948;4.568;2022-09-17T07:27:26;1.13;;;0.13;;
39814;SDS011;25495;45.948;4.568;2022-09-17T07:29:53;0.70;;;0.20;;
39814;SDS011;25495;45.948;4.568;2022-09-17T07:32:19;1.08;;;0.32;;
39814;SDS011;25495;45.948;4.568;2022-09-17T07:34:45;0.57;;;0.30;;
39814;SDS011;25495;45.948;4.568;2022-09-17T07:37:11;1.30;;;0.20;;
39814;SDS011;25495;45.948;4.568;2022-09-17T07:39:37;0.93;;;0.30;;
39814;SDS011;25495;45.948;4.568;2022-09-17T07:42:03;1.05;;;0.20;;
39814;SDS011;25495;45.948;4.568;2022-09-17T07:44:29;1.98;;;0.25;;
39814;SDS011;25495;45.948;4.568;2022-09-17T07:46:55;0.88;;;0.40;;
39814;SDS011;25495;45.948;4.568;2022-09-17T07:49:21;0.38;;;0.30;;
39814;SDS011;25495;45.948;4.568;2022-09-17T07:51:46;0.85;;;0.35;;
39814;SDS011;25495;45.948;4.568;2022-09-17T07:54:12;0.75;;;0.22;;
39814;SDS011;25495;45.948;4.568;2022-09-17T07:56:38;1.55;;;0.30;;
39814;SDS011;25495;45.948;4.568;2022-09-17T07:59:04;0.65;;;0.28;;
39814;SDS011;25495;45.948;4.568;2022-09-17T08:01:32;0.88;;;0.20;;
39814;SDS011;25495;45.948;4.568;2022-09-17T08:03:58;1.98;;;0.47;;
39814;SDS011;25495;45.948;4.568;2022-09-17T08:06:25;1.90;;;0.47;;
39814;SDS011;25495;45.948;4.568;2022-09-17T08:08:55;3.70;;;0.50;;
39814;SDS011;25495;45.948;4.568;2022-09-17T08:11:24;0.52;;;0.35;;
39814;SDS011;25495;45.948;4.568;2022-09-17T08:13:52;3.50;;;0.57;;
39814;SDS011;25495;45.948;4.568;2022-09-17T08:16:21;2.22;;;0.30;;
39814;SDS011;25495;45.948;4.568;2022-09-17T08:18:48;5.85;;;0.30;;
39814;SDS011;25495;45.948;4.568;2022-09-17T08:21:18;0.35;;;0.25;;
39814;SDS011;25495;45.948;4.568;2022-09-17T08:23:44;4.50;;;0.40;;
39814;SDS011;25495;45.948;4.568;2022-09-17T08:26:11;1.88;;;0.30;;
39814;SDS011;25495;45.948;4.568;2022-09-17T08:28:45;2.85;;;0.45;;
39814;SDS011;25495;45.948;4.568;2022-09-17T08:31:14;0.43;;;0.20;;
39814;SDS011;25495;45.948;4.568;2022-09-17T08:33:41;0.73;;;0.28;;
39814;SDS011;25495;45.948;4.568;2022-09-17T08:36:07;2.08;;;0.50;;
39814;SDS011;25495;45.948;4.568;2022-09-17T08:38:35;1.42;;;0.13;;
39814;SDS011;25495;45.948;4.568;2022-09-17T08:46:25;1.55;;;0.30;;
39814;SDS011;25495;45.948;4.568;2022-09-17T08:54:35;1.80;;;0.32;;
39814;SDS011;25495;45.948;4.568;2022-09-17T08:59:58;1.30;;;0.25;;
39814;SDS011;25495;45.948;4.568;2022-09-17T09:05:44;3.53;;;0.40;;
39814;SDS011;25495;45.948;4.568;2022-09-17T09:10:54;0.95;;;0.32;;
39814;SDS011;25495;45.948;4.568;2022-09-17T09:13:22;2.38;;;0.32;;
39814;SDS011;25495;45.948;4.568;2022-09-17T09:16:02;4.38;;;0.75;;
39814;SDS011;25495;45.948;4.568;2022-09-17T09:18:35;2.78;;;0.47;;
39814;SDS011;25495;45.948;4.568;2022-09-17T09:23:59;2.50;;;0.43;;
39814;SDS011;25495;45.948;4.568;2022-09-17T09:26:46;1.25;;;0.32;;
39814;SDS011;25495;45.948;4.568;2022-09-17T09:35:16;2.38;;;0.30;;
39814;SDS011;25495;45.948;4.568;2022-09-17T09:38:05;2.35;;;0.30;;
39814;SDS011;25495;45.948;4.568;2022-09-17T09:40:53;3.97;;;0.30;;
39814;SDS011;25495;45.948;4.568;2022-09-17T09:43:40;3.40;;;0.40;;
39814;SDS011;25495;45.948;4.568;2022-09-17T09:59:22;2.40;;;0.30;;
39814;SDS011;25495;45.948;4.568;2022-09-17T10:01:49;1.80;;;0.40;;
39814;SDS011;25495;45.948;4.568;2022-09-17T10:06:50;2.25;;;0.38;;
39814;SDS011;25495;45.948;4.568;2022-09-17T10:09:17;0.82;;;0.20;;
39814;SDS011;25495;45.948;4.568;2022-09-17T10:11:59;0.30;;;0.10;;
39814;SDS011;25495;45.948;4.568;2022-09-17T10:14:29;0.22;;;0.13;;
39814;SDS011;25495;45.948;4.568;2022-09-17T10:19:43;1.92;;;0.30;;
39814;SDS011;25495;45.948;4.568;2022-09-17T10:22:23;2.42;;;0.32;;
39814;SDS011;25495;45.948;4.568;2022-09-17T10:24:55;1.75;;;0.45;;
39814;SDS011;25495;45.948;4.568;2022-09-17T10:27:23;1.08;;;0.43;;
39814;SDS011;25495;45.948;4.568;2022-09-17T10:29:53;1.35;;;0.20;;
39814;SDS011;25495;45.948;4.568;2022-09-17T10:32:28;0.22;;;0.10;;
39814;SDS011;25495;45.948;4.568;2022-09-17T10:42:45;2.10;;;0.30;;
39814;SDS011;25495;45.948;4.568;2022-09-17T10:45:25;1.33;;;0.40;;
39814;SDS011;25495;45.948;4.568;2022-09-17T10:47:53;2.05;;;0.40;;
39814;SDS011;25495;45.948;4.568;2022-09-17T10:50:27;2.63;;;0.28;;
39814;SDS011;25495;45.948;4.568;2022-09-17T10:52:56;0.47;;;0.20;;
39814;SDS011;25495;45.948;4.568;2022-09-17T11:01:19;0.57;;;0.20;;
39814;SDS011;25495;45.948;4.568;2022-09-17T11:06:44;5.25;;;0.25;;
39814;SDS011;25495;45.948;4.568;2022-09-17T11:09:26;8.75;;;0.43;;
39814;SDS011;25495;45.948;4.568;2022-09-17T11:14:49;0.98;;;0.20;;
39814;SDS011;25495;45.948;4.568;2022-09-17T11:20:27;0.75;;;0.20;;
39814;SDS011;25495;45.948;4.568;2022-09-17T11:26:04;1.80;;;0.30;;
39814;SDS011;25495;45.948;4.568;2022-09-17T11:31:42;1.05;;;0.10;;
39814;SDS011;25495;45.948;4.568;2022-09-17T11:37:20;1.30;;;0.40;;
39814;SDS011;25495;45.948;4.568;2022-09-17T11:42:23;3.30;;;0.40;;
39814;SDS011;25495;45.948;4.568;2022-09-17T11:47:53;0.57;;;0.20;;
39814;SDS011;25495;45.948;4.568;2022-09-17T11:50:43;0.93;;;0.20;;
39814;SDS011;25495;45.948;4.568;2022-09-17T11:53:31;2.05;;;0.47;;
39814;SDS011;25495;45.948;4.568;2022-09-17T11:56:09;4.50;;;0.50;;
39814;SDS011;25495;45.948;4.568;2022-09-17T11:59:02;2.25;;;0.57;;
39814;SDS011;25495;45.948;4.568;2022-09-17T12:01:42;1.75;;;0.30;;
39814;SDS011;25495;45.948;4.568;2022-09-17T12:07:01;4.00;;;0.40;;
39814;SDS011;25495;45.948;4.568;2022-09-17T12:09:49;1.20;;;0.30;;
39814;SDS011;25495;45.948;4.568;2022-09-17T12:12:21;2.17;;;0.30;;
39814;SDS011;25495;45.948;4.568;2022-09-17T12:15:01;0.88;;;0.25;;
39814;SDS011;25495;45.948;4.568;2022-09-17T12:17:42;1.13;;;0.30;;
39814;SDS011;25495;45.948;4.568;2022-09-17T12:20:30;0.95;;;0.30;;
39814;SDS011;25495;45.948;4.568;2022-09-17T12:23:02;0.65;;;0.30;;
39814;SDS011;25495;45.948;4.568;2022-09-17T12:25:37;0.63;;;0.20;;
39814;SDS011;25495;45.948;4.568;2022-09-17T12:28:30;0.77;;;0.35;;
39814;SDS011;25495;45.948;4.568;2022-09-17T12:31:06;1.92;;;0.68;;
39814;SDS011;25495;45.948;4.568;2022-09-17T12:33:53;1.33;;;0.35;;
39814;SDS011;25495;45.948;4.568;2022-09-17T12:36:44;0.40;;;0.20;;
39814;SDS011;25495;45.948;4.568;2022-09-17T12:42:12;1.00;;;0.40;;
39814;SDS011;25495;45.948;4.568;2022-09-17T12:53:42;1.02;;;0.17;;
39814;SDS011;25495;45.948;4.568;2022-09-17T12:59:31;2.08;;;0.30;;
39814;SDS011;25495;45.948;4.568;2022-09-17T13:02:11;1.08;;;0.22;;
39814;SDS011;25495;45.948;4.568;2022-09-17T13:10:03;1.65;;;0.20;;
39814;SDS011;25495;45.948;4.568;2022-09-17T13:12:54;3.42;;;0.30;;
39814;SDS011;25495;45.948;4.568;2022-09-17T13:23:33;0.40;;;0.20;;
39814;SDS011;25495;45.948;4.568;2022-09-17T13:26:03;1.00;;;0.43;;
39814;SDS011;25495;45.948;4.568;2022-09-17T13:31:04;1.40;;;0.40;;
39814;SDS011;25495;45.948;4.568;2022-09-17T13:33:50;0.10;;;0.10;;
39814;SDS011;25495;45.948;4.568;2022-09-17T13:36:36;0.80;;;0.13;;
39814;SDS011;25495;45.948;4.568;2022-09-17T13:39:04;1.27;;;0.10;;
39814;SDS011;25495;45.948;4.568;2022-09-17T13:41:32;0.75;;;0.20;;
39814;SDS011;25495;45.948;4.568;2022-09-17T13:44:02;4.10;;;0.90;;
39814;SDS011;25495;45.948;4.568;2022-09-17T13:46:30;0.47;;;0.28;;
39814;SDS011;25495;45.948;4.568;2022-09-17T13:49:02;1.85;;;0.38;;
39814;SDS011;25495;45.948;4.568;2022-09-17T13:54:08;1.45;;;0.22;;
39814;SDS011;25495;45.948;4.568;2022-09-17T13:56:45;0.70;;;0.60;;
39814;SDS011;25495;45.948;4.568;2022-09-17T13:59:22;2.50;;;0.20;;
39814;SDS011;25495;45.948;4.568;2022-09-17T14:09:52;1.40;;;0.38;;
39814;SDS011;25495;45.948;4.568;2022-09-17T14:13:15;0.85;;;0.30;;
39814;SDS011;25495;45.948;4.568;2022-09-17T14:17:57;0.30;;;0.20;;
39814;SDS011;25495;45.948;4.568;2022-09-17T14:20:24;1.40;;;0.13;;
39814;SDS011;25495;45.948;4.568;2022-09-17T14:22:56;0.47;;;0.20;;
39814;SDS011;25495;45.948;4.568;2022-09-17T14:28:12;0.10;;;0.08;;
39814;SDS011;25495;45.948;4.568;2022-09-17T14:30:46;0.63;;;0.10;;
39814;SDS011;25495;45.948;4.568;2022-09-17T14:33:15;1.02;;;0.20;;
39814;SDS011;25495;45.948;4.568;2022-09-17T14:35:45;3.72;;;0.47;;
39814;SDS011;25495;45.948;4.568;2022-09-17T14:41:31;2.28;;;0.17;;
39814;SDS011;25495;45.948;4.568;2022-09-17T14:46:29;0.88;;;0.22;;
39814;SDS011;25495;45.948;4.568;2022-09-17T14:51:55;2.17;;;0.32;;
39814;SDS011;25495;45.948;4.568;2022-09-17T14:56:55;0.70;;;0.47;;
39814;SDS011;25495;45.948;4.568;2022-09-17T15:07:41;0.88;;;0.20;;
39814;SDS011;25495;45.948;4.568;2022-09-17T15:10:11;2.63;;;0.32;;
39814;SDS011;25495;45.948;4.568;2022-09-17T15:12:42;1.48;;;0.38;;
39814;SDS011;25495;45.948;4.568;2022-09-17T15:15:27;2.53;;;0.77;;
39814;SDS011;25495;45.948;4.568;2022-09-17T15:17:53;2.50;;;0.35;;
39814;SDS011;25495;45.948;4.568;2022-09-17T15:20:20;2.53;;;0.30;;
39814;SDS011;25495;45.948;4.568;2022-09-17T15:22:55;1.33;;;0.30;;
39814;SDS011;25495;45.948;4.568;2022-09-17T15:25:24;2.17;;;0.38;;
39814;SDS011;25495;45.948;4.568;2022-09-17T15:27:54;5.57;;;0.25;;
39814;SDS011;25495;45.948;4.568;2022-09-17T15:30:23;0.68;;;0.20;;
39814;SDS011;25495;45.948;4.568;2022-09-17T15:32:56;4.18;;;0.20;;
39814;SDS011;25495;45.948;4.568;2022-09-17T15:35:32;0.50;;;0.20;;
39814;SDS011;25495;45.948;4.568;2022-09-17T15:38:02;1.92;;;0.47;;
39814;SDS011;25495;45.948;4.568;2022-09-17T15:40:43;2.17;;;0.10;;
39814;SDS011;25495;45.948;4.568;2022-09-17T15:45:51;2.13;;;0.52;;
39814;SDS011;25495;45.948;4.568;2022-09-17T15:48:39;0.20;;;0.20;;
39814;SDS011;25495;45.948;4.568;2022-09-17T15:51:11;3.55;;;0.28;;
39814;SDS011;25495;45.948;4.568;2022-09-17T15:53:50;1.65;;;0.32;;
39814;SDS011;25495;45.948;4.568;2022-09-17T15:56:18;3.60;;;0.50;;
39814;SDS011;25495;45.948;4.568;2022-09-17T15:58:52;2.42;;;0.40;;
39814;SDS011;25495;45.948;4.568;2022-09-17T16:07:01;1.65;;;0.30;;
39814;SDS011;25495;45.948;4.568;2022-09-17T16:09:38;1.98;;;0.20;;
39814;SDS011;25495;45.948;4.568;2022-09-17T16:12:06;0.65;;;0.20;;
39814;SDS011;25495;45.948;4.568;2022-09-17T16:14:34;1.52;;;0.45;;
39814;SDS011;25495;45.948;4.568;2022-09-17T16:17:07;1.33;;;0.30;;
39814;SDS011;25495;45.948;4.568;2022-09-17T16:19:45;0.40;;;0.30;;
39814;SDS011;25495;45.948;4.568;2022-09-17T16:22:11;1.33;;;0.30;;
39814;SDS011;25495;45.948;4.568;2022-09-17T16:24:37;0.70;;;0.30;;
39814;SDS011;25495;45.948;4.568;2022-09-17T16:27:03;1.08;;;0.25;;
39814;SDS011;25495;45.948;4.568;2022-09-17T16:29:29;1.08;;;0.43;;
39814;SDS011;25495;45.948;4.568;2022-09-17T16:31:55;3.85;;;0.45;;
39814;SDS011;25495;45.948;4.568;2022-09-17T16:34:21;1.70;;;0.40;;
39814;SDS011;25495;45.948;4.568;2022-09-17T16:36:49;4.28;;;0.50;;
39814;SDS011;25495;45.948;4.568;2022-09-17T16:39:14;1.25;;;0.20;;
39814;SDS011;25495;45.948;4.568;2022-09-17T16:41:40;1.88;;;0.30;;
39814;SDS011;25495;45.948;4.568;2022-09-17T16:44:06;2.38;;;0.30;;
39814;SDS011;25495;45.948;4.568;2022-09-17T16:46:32;1.98;;;0.20;;
39814;SDS011;25495;45.948;4.568;2022-09-17T16:48:58;5.38;;;0.40;;
39814;SDS011;25495;45.948;4.568;2022-09-17T16:51:24;0.90;;;0.40;;
39814;SDS011;25495;45.948;4.568;2022-09-17T16:53:50;3.35;;;0.50;;
39814;SDS011;25495;45.948;4.568;2022-09-17T16:56:16;1.63;;;0.40;;
39814;SDS011;25495;45.948;4.568;2022-09-17T16:58:42;1.15;;;0.40;;
39814;SDS011;25495;45.948;4.568;2022-09-17T17:01:08;0.47;;;0.25;;
39814;SDS011;25495;45.948;4.568;2022-09-17T17:03:35;1.95;;;0.40;;
39814;SDS011;25495;45.948;4.568;2022-09-17T17:06:02;4.30;;;0.50;;
39814;SDS011;25495;45.948;4.568;2022-09-17T17:08:31;2.63;;;0.52;;
39814;SDS011;25495;45.948;4.568;2022-09-17T17:10:58;1.63;;;0.50;;
39814;SDS011;25495;45.948;4.568;2022-09-17T17:13:24;1.10;;;0.47;;
39814;SDS011;25495;45.948;4.568;2022-09-17T17:15:51;1.00;;;0.45;;
39814;SDS011;25495;45.948;4.568;2022-09-17T17:18:20;1.17;;;0.32;;
39814;SDS011;25495;45.948;4.568;2022-09-17T17:20:46;1.13;;;0.30;;
39814;SDS011;25495;45.948;4.568;2022-09-17T17:23:13;1.83;;;0.50;;
39814;SDS011;25495;45.948;4.568;2022-09-17T17:25:39;2.03;;;0.35;;
39814;SDS011;25495;45.948;4.568;2022-09-17T17:28:04;0.32;;;0.20;;
39814;SDS011;25495;45.948;4.568;2022-09-17T17:30:30;1.35;;;0.30;;
39814;SDS011;25495;45.948;4.568;2022-09-17T17:32:56;1.27;;;0.35;;
39814;SDS011;25495;45.948;4.568;2022-09-17T17:35:24;0.40;;;0.20;;
39814;SDS011;25495;45.948;4.568;2022-09-17T17:37:50;0.77;;;0.50;;
39814;SDS011;25495;45.948;4.568;2022-09-17T17:40:17;0.88;;;0.35;;
39814;SDS011;25495;45.948;4.568;2022-09-17T17:42:43;1.52;;;0.30;;
39814;SDS011;25495;45.948;4.568;2022-09-17T17:45:11;1.05;;;0.32;;
39814;SDS011;25495;45.948;4.568;2022-09-17T17:47:37;2.67;;;0.60;;
39814;SDS011;25495;45.948;4.568;2022-09-17T17:50:03;2.83;;;0.40;;
39814;SDS011;25495;45.948;4.568;2022-09-17T17:52:29;0.52;;;0.43;;
39814;SDS011;25495;45.948;4.568;2022-09-17T17:54:55;4.88;;;0.68;;
39814;SDS011;25495;45.948;4.568;2022-09-17T17:57:21;2.45;;;0.60;;
39814;SDS011;25495;45.948;4.568;2022-09-17T17:59:47;2.70;;;0.50;;
39814;SDS011;25495;45.948;4.568;2022-09-17T18:02:13;3.13;;;0.60;;
39814;SDS011;25495;45.948;4.568;2022-09-17T18:04:39;2.45;;;0.75;;
39814;SDS011;25495;45.948;4.568;2022-09-17T18:07:04;3.80;;;0.70;;
39814;SDS011;25495;45.948;4.568;2022-09-17T18:09:32;2.97;;;0.82;;
39814;SDS011;25495;45.948;4.568;2022-09-17T18:11:58;4.63;;;0.63;;
39814;SDS011;25495;45.948;4.568;2022-09-17T18:14:24;4.50;;;0.68;;
39814;SDS011;25495;45.948;4.568;2022-09-17T18:16:49;5.25;;;0.90;;
39814;SDS011;25495;45.948;4.568;2022-09-17T18:19:15;1.55;;;0.50;;
39814;SDS011;25495;45.948;4.568;2022-09-17T18:21:41;1.10;;;0.65;;
39814;SDS011;25495;45.948;4.568;2022-09-17T18:24:07;1.75;;;0.52;;
39814;SDS011;25495;45.948;4.568;2022-09-17T18:26:33;1.85;;;0.45;;